• Join FlightAware (Why Join?)
  • Login
  • US Flag 
07:38AM EDT


 

Airport Tracker/Info


-or-


 

Live Flight TrackerFlight Track Log ✈ EJA929 ✈ 31-Jul-2013 ✈ KICT - KISN

Flight Track Log - Related Links

Times and Time Zones

All times are in EDT time to prevent confusion due to time zone crossing. See the EJA929 flight status page for this flight to view local times or setup timezone preferences in your user account.

Time Position Orientation Groundspeed Altitude Reporting Facility
EDT Latitude Longitude Course Direction KTS MPH feet Rate Location/Type
11:25AM 37.6667 -97.4158 339° North 160 184 2,000  Level Kansas City Center
11:26AM 37.7039 -97.4100 North 204 235 4,100 2,280 Climbing Kansas City Center
11:27AM 37.7933 -97.4250 352° North 251 289 7,000 1,920 Climbing Kansas City Center
11:28AM 37.8828 -97.4403 352° North 271 312 8,900 1,860 Climbing Kansas City Center
11:30AM 37.9586 -97.4528 353° North 275 316 10,900 1,680 Climbing Kansas City Center
11:31AM 38.7077 -97.9618 339° North  Level Estimated
11:31AM 38.0472 -97.4681 352° North 322 371 12,400  Level Kansas City Center
11:32AM 38.1494 -97.4856 352° North 331 381 14,500 1,680 Climbing Kansas City Center
11:33AM 38.2367 -97.5017 352° North 350 403 15,900 1,200 Climbing Kansas City Center
11:34AM 38.3506 -97.5208 352° North 355 409 17,000 540 Climbing Kansas City Center
11:35AM 38.4608 -97.5397 352° North 393 452 17,000 660 Level Kansas City Center
11:36AM 38.5717 -97.5597 352° North 402 463 18,400 1,500 Climbing Kansas City Center
11:37AM 38.6789 -97.5775 353° North 392 451 20,200 1,740 Climbing Kansas City Center
11:38AM 38.7939 -97.6003 351° North 383 441 22,100 1,740 Climbing Kansas City Center
11:39AM 38.8939 -97.6169 353° North 379 436 23,800 1,740 Climbing Kansas City Center
11:40AM 39.0092 -97.6444 349° North 374 430 25,800 1,500 Climbing Kansas City Center
11:41AM 39.1100 -97.6733 347° North 385 443 27,000 1,320 Climbing Kansas City Center
11:42AM 39.2317 -97.7086 347° North 398 458 28,500 1,320 Climbing Kansas City Center
11:43AM 39.3436 -97.7408 347° North 405 466 29,800 1,200 Climbing Kansas City Center
11:44AM 39.4572 -97.7736 347° North 418 481 31,100 1,200 Climbing Kansas City Center
11:45AM 39.5728 -97.8089 347° North 425 489 32,400 1,260 Climbing Kansas City Center
11:46AM 39.6911 -97.8406 348° North 422 486 33,800 1,620 Climbing Minneapolis Center
11:47AM 39.8317 -97.8839 347° North 427 491 35,800 1,800 Climbing Minneapolis Center
11:48AM 39.9456 -97.9181 347° North 427 491 37,600 1,020 Climbing Minneapolis Center
11:49AM 40.0589 -97.9514 347° North 423 487 38,000 180 Climbing Minneapolis Center
11:50AM 40.1767 -97.9842 348° North 424 488 38,000 480 Level Minneapolis Center
11:51AM 40.3003 -98.0203 347° North 434 499 39,000 960 Climbing Minneapolis Center
11:52AM 40.4200 -98.0578 347° North 439 505 40,000 480 Climbing Minneapolis Center
11:53AM 40.5367 -98.0925 347° North 438 504 40,000  Level Minneapolis Center
11:54AM 40.6722 -98.1322 347° North 429 494 40,000  Level Minneapolis Center
11:55AM 40.7861 -98.1667 347° North 424 488 40,000  Level Minneapolis Center
11:56AM 40.8783 -98.1933 348° North 423 487 40,000  Level Minneapolis Center
11:57AM 41.0167 -98.2353 347° North 423 487 40,000  Level Minneapolis Center
11:58AM 41.1325 -98.2711 347° North 424 488 40,000  Level Minneapolis Center
12:00PM 41.2486 -98.3072 347° North 424 488 40,000  Level Minneapolis Center
12:01PM 41.3878 -98.3486 347° North 426 490 40,000  Level Minneapolis Center
12:02PM 41.5019 -98.3853 346° North 423 487 40,000  Level Minneapolis Center
12:03PM 41.6167 -98.4197 347° North 422 486 40,000  Level Minneapolis Center
12:04PM 41.7319 -98.4558 347° North 423 487 40,000  Level Minneapolis Center
12:05PM 41.8483 -98.4922 347° North 427 491 40,000  Level Minneapolis Center
12:06PM 41.9639 -98.5272 347° North 425 489 40,000  Level Minneapolis Center
12:07PM 42.1253 -98.5778 347° North 425 489 40,000  Level Minneapolis Center
12:08PM 42.2156 -98.6061 347° North 418 481 40,000  Level Minneapolis Center
12:09PM 42.3528 -98.6489 347° North 420 483 40,000  Level Minneapolis Center
12:10PM 42.4656 -98.6889 345° North 418 481 40,000  Level Minneapolis Center
12:11PM 42.5533 -98.7778 323° Northwest 396 456 40,000  Level Minneapolis Center
12:12PM 42.6403 -98.8742 321° Northwest 393 452 40,000  Level Minneapolis Center
12:13PM 42.7353 -98.9792 321° Northwest 390 449 40,000  Level Minneapolis Center
12:14PM 42.8369 -99.0928 321° Northwest 393 452 40,000  Level Minneapolis Center
12:15PM 42.9219 -99.1861 321° Northwest 392 451 40,000  Level Minneapolis Center
12:16PM 43.0061 -99.2822 320° Northwest 395 455 40,000  Level Minneapolis Center
12:18PM 43.0742 -99.3583 321° Northwest 394 453 40,000  Level Minneapolis Center
12:19PM 43.1933 -99.4931 321° Northwest 398 458 40,000  Level Minneapolis Center
12:20PM 43.2792 -99.5889 321° Northwest 399 459 40,000  Level Minneapolis Center
12:21PM 43.3644 -99.6861 320° Northwest 399 459 40,000  Level Minneapolis Center
12:22PM 43.4497 -99.7831 320° Northwest 398 458 40,000  Level Minneapolis Center
12:23PM 43.5367 -99.8833 320° Northwest 403 464 40,000  Level Minneapolis Center
12:24PM 43.6247 -99.9833 321° Northwest 408 470 40,000  Level Minneapolis Center
12:25PM 43.7311 -100.1064 320° Northwest 413 475 40,000  Level Minneapolis Center
12:26PM 43.8197 -100.2097 320° Northwest 415 478 40,000  Level Minneapolis Center
12:27PM 43.9078 -100.3122 320° Northwest 414 476 40,000  Level Minneapolis Center
12:28PM 43.9786 -100.3947 320° Northwest 414 476 40,000  Level Minneapolis Center
12:29PM 44.0833 -100.5186 320° Northwest 412 474 40,000  Level Minneapolis Center
12:30PM 44.1711 -100.6214 320° Northwest 411 473 40,000  Level Minneapolis Center
12:31PM 44.2586 -100.7264 319° Northwest 413 475 40,000  Level Minneapolis Center
12:32PM 44.3939 -100.8525 326° Northwest 420 483 40,000  Level Minneapolis Center
12:33PM 44.5008 -100.9258 334° Northwest 425 489 40,000  Level Minneapolis Center
12:34PM 44.6072 -100.9992 334° Northwest 425 489 40,000  Level Minneapolis Center
12:35PM 44.7133 -101.0722 334° Northwest 425 489 40,000  Level Minneapolis Center
12:36PM 44.8194 -101.1456 334° Northwest 424 488 40,000  Level Minneapolis Center
12:37PM 44.9256 -101.2206 333° Northwest 424 488 40,000  Level Minneapolis Center
12:38PM 45.0333 -101.2953 334° Northwest 426 490 40,000  Level Minneapolis Center
12:39PM 45.1686 -101.3883 334° Northwest 441 507 40,000  Level Minneapolis Center
12:40PM 45.2786 -101.4628 335° Northwest 439 505 40,000  Level Minneapolis Center
12:42PM 45.3881 -101.5408 333° Northwest 439 505 40,000  Level Minneapolis Center
12:43PM 45.4975 -101.6197 333° Northwest 439 505 40,000  Level Minneapolis Center
12:44PM 45.6064 -101.6975 333° Northwest 439 505 40,000  Level Minneapolis Center
12:45PM 45.7164 -101.7750 334° Northwest 440 506 40,000  Level Minneapolis Center
12:46PM 45.8475 -101.8689 333° Northwest 439 505 40,000  Level Minneapolis Center
12:47PM 45.9567 -101.9483 333° Northwest 439 505 40,000  Level Minneapolis Center
12:48PM 46.0647 -102.0261 333° Northwest 436 502 40,000  Level Minneapolis Center
12:49PM 46.1664 -102.0986 334° Northwest 435 501 40,000  Level Minneapolis Center
12:50PM 46.2742 -102.1775 333° Northwest 435 501 40,000  Level Minneapolis Center
12:51PM 46.4031 -102.2703 334° Northwest 433 498 40,000  Level Minneapolis Center
12:52PM 46.5083 -102.3511 332° Northwest 432 497 40,000 -300 Level Minneapolis Center
12:53PM 46.6167 -102.4306 333° Northwest 435 501 39,400 -720 Descending Minneapolis Center
12:54PM 46.7272 -102.5139 333° Northwest 444 511 38,400 -1,680 Descending Minneapolis Center
12:55PM 46.8525 -102.6117 332° Northwest 432 497 35,600 -3,240 Descending Minneapolis Center
12:56PM 46.9564 -102.6867 334° Northwest 419 482 31,700 -4,260 Descending Minneapolis Center
12:57PM 47.0853 -102.7933 331° Northwest 440 506 26,900 -4,260 Descending Minneapolis Center
12:58PM 47.1953 -102.8778 332° Northwest 446 513 22,900 -3,900 Descending Minneapolis Center
12:59PM 47.3003 -102.9592 332° Northwest 436 502 18,900 -3,480 Descending Minneapolis Center
01:00PM 47.3989 -103.0353 332° Northwest 422 486 15,800 -3,240 Descending Minneapolis Center
01:01PM 47.4878 -103.1047 332° Northwest 392 451 12,300 -2,820 Descending Minneapolis Center
01:02PM 47.5744 -103.1722 332° Northwest 371 427 10,000 -1,740 Descending Minneapolis Center
01:03PM 47.6517 -103.2339 332° Northwest 294 338 8,800 -1,620 Descending Minneapolis Center
01:04PM 47.7153 -103.2822 333° Northwest 270 311 6,700 -1,860 Descending Minneapolis Center
01:06PM 47.7797 -103.3308 333° Northwest 264 304 5,000 -1,620 Descending Minneapolis Center